createdAt,value
2023-04-16T00:00:43.253Z,101150.56
2023-04-16T00:03:09.946Z,101152.66
2023-04-16T00:05:36.600Z,101160.00
2023-04-16T00:08:03.157Z,101157.84
2023-04-16T00:10:29.703Z,101150.56
2023-04-16T00:12:56.293Z,101159.84
2023-04-16T00:15:23.004Z,101157.47
2023-04-16T00:17:49.930Z,101161.88
2023-04-16T00:20:16.694Z,101156.44
2023-04-16T00:22:43.334Z,101162.34
2023-04-16T00:25:09.929Z,101162.69
2023-04-16T00:27:36.472Z,101165.91
2023-04-16T00:30:03.493Z,101162.47
2023-04-16T00:32:30.532Z,101156.88
2023-04-16T00:34:57.218Z,101156.19
2023-04-16T00:37:23.820Z,101154.06
2023-04-16T00:39:50.836Z,101158.19
2023-04-16T00:42:17.399Z,101160.00
2023-04-16T00:44:43.976Z,101153.22
2023-04-16T00:47:11.437Z,101160.34
2023-04-16T00:49:38.204Z,101163.03
2023-04-16T00:52:04.909Z,101155.84
2023-04-16T00:54:31.978Z,101152.78
2023-04-16T00:56:59.492Z,101158.16
2023-04-16T00:59:27.117Z,101145.75
2023-04-16T01:01:54.171Z,101157.31
2023-04-16T01:04:21.413Z,101148.03
2023-04-16T01:06:48.120Z,101155.63
2023-04-16T01:09:14.936Z,101152.66
2023-04-16T01:11:41.489Z,101155.59
2023-04-16T01:14:08.165Z,101155.06
2023-04-16T01:16:34.755Z,101157.50
2023-04-16T01:19:01.357Z,101162.63
2023-04-16T01:21:28.077Z,101169.94
2023-04-16T01:23:54.690Z,101170.59
2023-04-16T01:26:21.545Z,101171.69
2023-04-16T01:28:48.063Z,101172.25
2023-04-16T01:31:14.682Z,101169.53
2023-04-16T01:33:59.405Z,101178.53
2023-04-16T01:36:26.865Z,101176.81
2023-04-16T01:38:53.409Z,101180.47
2023-04-16T01:41:19.977Z,101177.22
2023-04-16T01:43:46.625Z,101178.88
2023-04-16T01:46:24.957Z,101184.31
2023-04-16T01:48:54.612Z,101176.91
2023-04-16T01:51:21.874Z,101180.78
2023-04-16T01:53:49.855Z,101180.88
2023-04-16T01:56:16.846Z,101174.19
2023-04-16T01:58:43.410Z,101183.94
2023-04-16T02:01:10.323Z,101186.66
2023-04-16T02:03:38.317Z,101186.38
2023-04-16T02:06:05.448Z,101187.47
2023-04-16T02:08:32.442Z,101190.03
2023-04-16T02:10:59.646Z,101188.13
2023-04-16T02:13:26.539Z,101191.41
2023-04-16T02:15:53.634Z,101188.28
2023-04-16T02:18:43.051Z,101192.28
2023-04-16T02:21:10.793Z,101194.75
2023-04-16T02:23:41.031Z,101186.81
2023-04-16T02:26:07.563Z,101186.84
2023-04-16T02:28:34.255Z,101188.97
2023-04-16T02:31:01.103Z,101189.03
2023-04-16T02:33:32.988Z,101191.75
2023-04-16T02:36:02.950Z,101186.63
2023-04-16T02:38:29.708Z,101188.50
2023-04-16T02:40:56.312Z,101198.22
2023-04-16T02:43:23.000Z,101194.22
2023-04-16T02:45:49.643Z,101197.81
2023-04-16T02:48:16.309Z,101199.88
2023-04-16T02:50:42.917Z,101201.66
2023-04-16T02:53:10.634Z,101195.56
2023-04-16T02:55:37.193Z,101191.63
2023-04-16T02:58:03.804Z,101198.34
2023-04-16T03:00:30.350Z,101194.13
2023-04-16T03:02:57.121Z,101201.41
2023-04-16T03:05:24.022Z,101202.97
2023-04-16T03:07:56.322Z,101210.91
2023-04-16T03:10:23.579Z,101206.72
2023-04-16T03:12:50.389Z,101200.06
2023-04-16T03:15:17.049Z,101203.13
2023-04-16T03:17:43.666Z,101205.94
2023-04-16T03:20:10.651Z,101209.91
2023-04-16T03:22:40.923Z,101214.31
2023-04-16T03:25:08.598Z,101208.88
2023-04-16T03:27:35.581Z,101214.22
2023-04-16T03:30:03.249Z,101214.16
2023-04-16T03:32:31.086Z,101217.22
2023-04-16T03:34:57.667Z,101216.19
2023-04-16T03:37:24.405Z,101216.13
2023-04-16T03:39:51.183Z,101221.66
2023-04-16T03:42:17.737Z,101225.88
2023-04-16T03:44:44.372Z,101224.75
2023-04-16T03:47:11.308Z,101229.22
2023-04-16T03:49:38.099Z,101228.03
2023-04-16T03:52:04.791Z,101235.13
2023-04-16T03:54:31.466Z,101230.19
2023-04-16T03:57:09.156Z,101234.31
2023-04-16T03:59:35.797Z,101240.22
2023-04-16T04:02:02.387Z,101232.50
2023-04-16T04:04:29.103Z,101244.47
2023-04-16T04:06:57.482Z,101238.13
2023-04-16T04:09:25.716Z,101228.41
2023-04-16T04:11:52.960Z,101236.66
2023-04-16T04:14:19.547Z,101237.91
2023-04-16T04:16:46.243Z,101241.94
2023-04-16T04:19:14.446Z,101247.78
2023-04-16T04:21:41.886Z,101242.25
2023-04-16T04:24:08.892Z,101242.13
2023-04-16T04:26:35.510Z,101242.22
2023-04-16T04:29:02.075Z,101240.22
2023-04-16T04:31:29.982Z,101244.06
2023-04-16T04:33:56.650Z,101257.97
2023-04-16T04:36:23.248Z,101261.41
2023-04-16T04:38:50.183Z,101258.72
2023-04-16T04:41:17.178Z,101260.59
2023-04-16T04:43:43.829Z,101263.28
2023-04-16T04:46:10.538Z,101268.00
2023-04-16T04:48:37.143Z,101274.63
2023-04-16T04:51:05.268Z,101269.44
2023-04-16T04:53:32.406Z,101283.56
2023-04-16T04:56:11.094Z,101287.41
2023-04-16T04:58:39.298Z,101287.97
2023-04-16T05:01:06.121Z,101288.06
2023-04-16T05:03:32.887Z,101288.34
2023-04-16T05:05:59.543Z,101297.63
2023-04-16T05:08:26.219Z,101304.94
2023-04-16T05:10:52.787Z,101310.22
2023-04-16T05:13:19.428Z,101307.91
2023-04-16T05:15:46.078Z,101318.66
2023-04-16T05:18:12.666Z,101308.06
2023-04-16T05:20:39.187Z,101312.03
2023-04-16T05:23:06.033Z,101310.81
2023-04-16T05:25:32.568Z,101309.72
2023-04-16T05:27:59.133Z,101313.09
2023-04-16T05:30:25.712Z,101318.16
2023-04-16T05:32:52.258Z,101328.03
2023-04-16T05:35:18.875Z,101323.41
2023-04-16T05:37:45.540Z,101330.03
2023-04-16T05:40:14.033Z,101326.25
2023-04-16T05:42:40.912Z,101327.81
2023-04-16T05:45:07.984Z,101338.09
2023-04-16T05:47:34.569Z,101334.75
2023-04-16T05:50:01.095Z,101341.00
2023-04-16T05:52:27.589Z,101336.53
2023-04-16T05:54:54.144Z,101343.28
2023-04-16T05:57:20.790Z,101350.44
2023-04-16T05:59:47.369Z,101350.59
2023-04-16T06:02:14.080Z,101356.78
2023-04-16T06:04:40.722Z,101361.50
2023-04-16T06:07:07.300Z,101366.81
2023-04-16T06:09:33.846Z,101369.13
2023-04-16T06:12:01.082Z,101368.19
2023-04-16T06:14:27.661Z,101360.03
2023-04-16T06:16:54.310Z,101365.44
2023-04-16T06:19:20.944Z,101367.19
2023-04-16T06:21:47.628Z,101370.41
2023-04-16T06:24:14.254Z,101366.66
2023-04-16T06:26:40.814Z,101364.88
2023-04-16T06:29:07.495Z,101372.41
2023-04-16T06:31:34.354Z,101366.00
2023-04-16T06:34:01.306Z,101371.94
2023-04-16T06:36:28.987Z,101376.28
2023-04-16T06:38:55.803Z,101379.53
2023-04-16T06:41:23.575Z,101387.31
2023-04-16T06:43:50.145Z,101382.69
2023-04-16T06:46:16.747Z,101388.50
2023-04-16T06:48:43.337Z,101391.19
2023-04-16T06:51:10.105Z,101391.91
2023-04-16T06:53:37.521Z,101388.38
2023-04-16T06:56:04.560Z,101388.34
2023-04-16T06:58:31.147Z,101390.63
2023-04-16T07:00:57.820Z,101391.28
2023-04-16T07:03:24.672Z,101387.59
2023-04-16T07:05:51.337Z,101395.84
2023-04-16T07:08:17.920Z,101390.59
2023-04-16T07:10:45.140Z,101394.97
2023-04-16T07:13:11.739Z,101400.22
2023-04-16T07:15:38.330Z,101393.06
2023-04-16T07:18:04.919Z,101396.13
2023-04-16T07:20:31.616Z,101395.59
2023-04-16T07:22:59.388Z,101403.56
2023-04-16T07:25:26.867Z,101402.16
2023-04-16T07:27:53.641Z,101403.16
2023-04-16T07:30:20.648Z,101416.44
2023-04-16T07:32:47.263Z,101418.56
2023-04-16T07:35:13.876Z,101409.56
2023-04-16T07:37:40.492Z,101419.38
2023-04-16T07:40:08.112Z,101418.00
2023-04-16T07:42:35.232Z,101433.09
2023-04-16T07:45:01.766Z,101436.56
2023-04-16T07:47:28.316Z,101442.16
2023-04-16T07:49:54.879Z,101440.78
2023-04-16T07:52:21.417Z,101443.31
2023-04-16T07:54:48.082Z,101432.56
2023-04-16T07:57:14.574Z,101441.34
2023-04-16T07:59:41.200Z,101443.00
2023-04-16T08:02:10.800Z,101434.91
2023-04-16T08:04:37.545Z,101447.09
2023-04-16T08:07:04.265Z,101444.53
2023-04-16T08:09:30.871Z,101451.53
2023-04-16T08:11:57.599Z,101455.66
2023-04-16T08:14:24.168Z,101450.59
2023-04-16T08:16:51.101Z,101450.59
2023-04-16T08:19:17.869Z,101456.25
2023-04-16T08:21:44.455Z,101457.06
2023-04-16T08:24:11.803Z,101458.00
2023-04-16T08:26:38.452Z,101461.22
2023-04-16T08:29:05.165Z,101466.03
2023-04-16T08:31:31.990Z,101471.00
2023-04-16T08:33:58.942Z,101469.84
2023-04-16T08:36:25.631Z,101481.22
2023-04-16T08:38:52.237Z,101478.34
2023-04-16T08:41:21.816Z,101486.91
2023-04-16T08:43:48.575Z,101488.53
2023-04-16T08:46:17.712Z,101487.41
2023-04-16T08:48:48.681Z,101482.66
2023-04-16T08:51:17.231Z,101487.25
2023-04-16T08:53:51.606Z,101492.34
2023-04-16T08:56:21.309Z,101490.19
2023-04-16T08:58:49.998Z,101497.03
2023-04-16T09:01:18.419Z,101494.47
2023-04-16T09:03:48.108Z,101490.00
2023-04-16T09:06:16.366Z,101494.00
2023-04-16T09:08:48.845Z,101497.31
2023-04-16T09:11:18.258Z,101494.19
2023-04-16T09:13:46.297Z,101488.91
2023-04-16T09:16:13.759Z,101502.63
2023-04-16T09:18:41.255Z,101488.31
2023-04-16T09:21:11.115Z,101494.59
2023-04-16T09:23:41.104Z,101492.91
2023-04-16T09:26:07.672Z,101489.41
2023-04-16T09:28:40.869Z,101500.69
2023-04-16T09:31:12.731Z,101494.94
2023-04-16T09:33:39.467Z,101506.06
2023-04-16T09:36:07.530Z,101506.50
2023-04-16T09:38:52.368Z,101510.84
2023-04-16T09:41:19.735Z,101513.47
2023-04-16T09:43:59.961Z,101518.66
2023-04-16T09:46:32.713Z,101523.41
2023-04-16T09:49:05.462Z,101520.59
2023-04-16T09:51:37.723Z,101527.66
2023-04-16T09:54:07.724Z,101533.00
2023-04-16T09:56:40.472Z,101525.81
2023-04-16T09:59:07.456Z,101540.91
2023-04-16T10:01:34.122Z,101538.25
2023-04-16T10:04:00.950Z,101539.41
2023-04-16T10:06:29.251Z,101542.41
2023-04-16T10:08:58.542Z,101536.28
2023-04-16T10:11:25.916Z,101547.56
2023-04-16T10:13:52.520Z,101551.34
2023-04-16T10:16:19.098Z,101545.66
2023-04-16T10:18:46.876Z,101544.75
2023-04-16T10:21:15.301Z,101549.84
2023-04-16T10:23:43.572Z,101553.13
2023-04-16T10:26:10.452Z,101563.19
2023-04-16T10:28:37.117Z,101555.47
2023-04-16T10:31:07.406Z,101550.34
2023-04-16T10:33:36.498Z,101555.97
2023-04-16T10:36:17.263Z,101561.25
2023-04-16T10:38:49.315Z,101565.53
2023-04-16T10:41:16.472Z,101561.59
2023-04-16T10:43:44.891Z,101560.28
2023-04-16T10:46:31.511Z,101561.19
2023-04-16T10:49:12.297Z,101549.06
2023-04-16T10:51:39.154Z,101558.91
2023-04-16T10:54:08.425Z,101555.69
2023-04-16T10:56:36.533Z,101553.50
2023-04-16T10:59:11.119Z,101548.72
2023-04-16T11:01:45.294Z,101549.50
2023-04-16T11:04:21.121Z,101557.22
2023-04-16T11:07:16.263Z,101554.75
2023-04-16T11:09:54.837Z,101551.34
2023-04-16T11:12:41.567Z,101555.09
2023-04-16T11:15:13.268Z,101557.88
2023-04-16T11:17:46.577Z,101557.13
2023-04-16T11:20:20.940Z,101550.78
2023-04-16T11:22:52.545Z,101557.94
2023-04-16T11:25:23.503Z,101550.16
2023-04-16T11:27:51.175Z,101549.41
2023-04-16T11:30:18.875Z,101542.81
2023-04-16T11:32:45.975Z,101546.28
2023-04-16T11:35:17.649Z,101546.72
2023-04-16T11:37:45.282Z,101554.19
2023-04-16T11:40:12.697Z,101548.75
2023-04-16T11:42:40.819Z,101557.06
2023-04-16T11:45:12.759Z,101549.31
2023-04-16T11:48:06.142Z,101549.25
2023-04-16T11:50:32.940Z,101554.22
2023-04-16T11:53:05.438Z,101551.63
2023-04-16T11:55:32.093Z,101560.66
2023-04-16T11:58:11.925Z,101554.88
2023-04-16T12:00:38.589Z,101556.31
2023-04-16T12:03:05.319Z,101551.34
2023-04-16T12:05:33.881Z,101558.41
2023-04-16T12:08:11.195Z,101561.22
2023-04-16T12:10:54.880Z,101557.41
2023-04-16T12:13:21.687Z,101557.34
2023-04-16T12:15:50.222Z,101561.81
2023-04-16T12:18:17.763Z,101563.84
2023-04-16T12:20:45.421Z,101559.88
2023-04-16T12:23:30.693Z,101563.66
2023-04-16T12:26:02.333Z,101565.63
2023-04-16T12:28:29.826Z,101562.13
2023-04-16T12:30:56.528Z,101567.56
2023-04-16T12:33:23.335Z,101565.16
2023-04-16T12:35:50.620Z,101573.66
2023-04-16T12:38:17.456Z,101571.44
2023-04-16T12:40:44.761Z,101564.34
2023-04-16T12:43:11.406Z,101566.84
2023-04-16T12:45:38.783Z,101567.50
2023-04-16T12:48:05.586Z,101570.19
2023-04-16T12:50:32.562Z,101569.63
2023-04-16T12:52:59.480Z,101575.06
2023-04-16T12:55:26.142Z,101570.44
2023-04-16T12:57:53.050Z,101566.09
2023-04-16T13:00:20.015Z,101566.28
2023-04-16T13:02:46.987Z,101564.88
2023-04-16T13:05:16.552Z,101566.72
2023-04-16T13:07:43.161Z,101564.81
2023-04-16T13:10:10.419Z,101569.22
2023-04-16T13:12:37.156Z,101574.47
2023-04-16T13:15:04.272Z,101570.16
2023-04-16T13:17:31.216Z,101565.25
2023-04-16T13:19:57.826Z,101572.56
2023-04-16T13:22:24.432Z,101574.81
2023-04-16T13:24:50.969Z,101569.53
2023-04-16T13:27:17.951Z,101565.06
2023-04-16T13:29:44.829Z,101570.13
2023-04-16T13:32:13.688Z,101564.50
2023-04-16T13:34:40.550Z,101568.03
2023-04-16T13:37:07.119Z,101568.84
2023-04-16T13:39:33.854Z,101571.38
2023-04-16T13:42:00.620Z,101566.28
2023-04-16T13:44:27.163Z,101569.50
2023-04-16T13:46:53.857Z,101560.69
2023-04-16T13:49:20.599Z,101569.28
2023-04-16T13:51:47.163Z,101568.03
2023-04-16T13:54:13.710Z,101564.22
2023-04-16T13:56:40.829Z,101563.69
2023-04-16T13:59:08.165Z,101559.81
2023-04-16T14:01:34.980Z,101555.75
2023-04-16T14:04:06.443Z,101556.56
2023-04-16T14:06:34.645Z,101556.44
2023-04-16T14:09:01.877Z,101558.22
2023-04-16T14:11:28.785Z,101560.19
2023-04-16T14:13:55.582Z,101556.75
2023-04-16T14:16:22.327Z,101548.03
2023-04-16T14:18:48.946Z,101555.31
2023-04-16T14:21:15.596Z,101562.13
2023-04-16T14:23:42.263Z,101550.94
2023-04-16T14:26:08.959Z,101549.72
2023-04-16T14:28:35.776Z,101555.66
2023-04-16T14:31:02.527Z,101554.84
2023-04-16T14:33:29.222Z,101552.47
2023-04-16T14:35:56.050Z,101553.53
2023-04-16T14:38:22.754Z,101554.63
2023-04-16T14:40:49.322Z,101555.75
2023-04-16T14:43:15.908Z,101546.78
2023-04-16T14:45:42.621Z,101553.53
2023-04-16T14:48:09.285Z,101558.84
2023-04-16T14:50:37.906Z,101558.09
2023-04-16T14:53:05.211Z,101554.03
2023-04-16T14:55:32.210Z,101558.09
2023-04-16T14:57:59.664Z,101550.34
2023-04-16T15:00:27.259Z,101545.44
2023-04-16T15:02:55.058Z,101544.91
2023-04-16T15:05:22.197Z,101547.53
2023-04-16T15:07:48.878Z,101545.81
2023-04-16T15:10:15.525Z,101545.97
2023-04-16T15:12:42.111Z,101547.59
2023-04-16T15:15:09.878Z,101547.56
2023-04-16T15:17:36.818Z,101550.31
2023-04-16T15:20:08.169Z,101557.06
2023-04-16T15:22:35.229Z,101547.53
2023-04-16T15:25:02.197Z,101553.34
2023-04-16T15:27:29.030Z,101560.25
2023-04-16T15:29:55.682Z,101561.09
2023-04-16T15:32:22.506Z,101551.44
2023-04-16T15:34:49.067Z,101559.97
2023-04-16T15:37:16.034Z,101552.59
2023-04-16T15:39:43.184Z,101557.91
2023-04-16T15:42:11.162Z,101556.44
2023-04-16T15:44:37.774Z,101554.19
2023-04-16T15:47:06.212Z,101556.75
2023-04-16T15:49:32.820Z,101558.50
2023-04-16T15:51:59.575Z,101558.09
2023-04-16T15:54:26.379Z,101562.94
2023-04-16T15:56:52.927Z,101564.22
2023-04-16T15:59:19.532Z,101563.56
2023-04-16T16:01:46.307Z,101562.53
2023-04-16T16:04:12.997Z,101562.16
2023-04-16T16:06:39.725Z,101566.50
2023-04-16T16:09:06.284Z,101564.88
2023-04-16T16:11:32.914Z,101566.25
2023-04-16T16:14:02.917Z,101572.44
2023-04-16T16:16:29.677Z,101572.28
2023-04-16T16:18:56.445Z,101566.13
2023-04-16T16:21:23.039Z,101569.47
2023-04-16T16:23:49.629Z,101574.50
2023-04-16T16:26:16.203Z,101569.63
2023-04-16T16:28:44.610Z,101568.81
2023-04-16T16:31:12.256Z,101570.59
2023-04-16T16:33:40.447Z,101573.19
2023-04-16T16:36:10.823Z,101565.22
2023-04-16T16:38:37.960Z,101580.81
2023-04-16T16:41:04.607Z,101577.22
2023-04-16T16:43:31.410Z,101579.06
2023-04-16T16:45:57.985Z,101576.72
2023-04-16T16:48:24.952Z,101580.25
2023-04-16T16:50:59.118Z,101577.69
2023-04-16T16:53:25.717Z,101587.91
2023-04-16T16:55:52.245Z,101583.41
2023-04-16T16:58:18.850Z,101583.50
2023-04-16T17:00:45.525Z,101582.69
2023-04-16T17:03:12.157Z,101584.88
2023-04-16T17:05:38.909Z,101591.19
2023-04-16T17:08:06.586Z,101587.50
2023-04-16T17:10:33.123Z,101590.28
2023-04-16T17:12:59.646Z,101587.41
2023-04-16T17:15:26.367Z,101581.53
2023-04-16T17:17:54.712Z,101582.47
2023-04-16T17:20:21.384Z,101585.28
2023-04-16T17:22:48.027Z,101583.41
2023-04-16T17:25:14.832Z,101576.47
2023-04-16T17:27:41.435Z,101592.25
2023-04-16T17:30:08.592Z,101590.25
2023-04-16T17:32:35.276Z,101590.31
2023-04-16T17:35:04.163Z,101583.38
2023-04-16T17:37:31.077Z,101591.13
2023-04-16T17:39:57.675Z,101592.03
2023-04-16T17:42:24.691Z,101594.84
2023-04-16T17:44:51.463Z,101604.28
2023-04-16T17:47:18.047Z,101604.28
2023-04-16T17:49:44.815Z,101603.38
2023-04-16T17:52:11.348Z,101600.84
2023-04-16T17:54:37.894Z,101607.75
2023-04-16T17:57:04.458Z,101605.78
2023-04-16T17:59:31.158Z,101605.69
2023-04-16T18:01:57.878Z,101609.22
2023-04-16T18:04:24.630Z,101612.72
2023-04-16T18:06:51.318Z,101611.00
2023-04-16T18:09:19.256Z,101611.78
2023-04-16T18:11:45.849Z,101612.63
2023-04-16T18:14:16.566Z,101616.63
2023-04-16T18:16:43.169Z,101617.69
2023-04-16T18:19:09.771Z,101620.38
2023-04-16T18:21:36.357Z,101615.97
2023-04-16T18:24:05.290Z,101619.50
2023-04-16T18:26:35.651Z,101627.34
2023-04-16T18:29:03.099Z,101625.41
2023-04-16T18:31:29.735Z,101629.03
2023-04-16T18:33:58.387Z,101628.13
2023-04-16T18:36:26.934Z,101628.06
2023-04-16T18:41:24.016Z,101638.53
2023-04-16T18:43:50.854Z,101635.81
2023-04-16T18:46:17.736Z,101638.38
2023-04-16T18:48:45.125Z,101635.81
2023-04-16T18:51:13.243Z,101641.00
2023-04-16T18:53:42.286Z,101629.53
2023-04-16T18:56:09.004Z,101644.25
2023-04-16T18:58:35.606Z,101645.94
2023-04-16T19:01:02.926Z,101645.13
2023-04-16T19:03:30.326Z,101643.28
2023-04-16T19:05:56.977Z,101651.84
2023-04-16T19:08:23.573Z,101658.66
2023-04-16T19:10:51.144Z,101661.31
2023-04-16T19:13:17.886Z,101659.47
2023-04-16T19:15:44.405Z,101654.31
2023-04-16T19:18:10.965Z,101668.91
2023-04-16T19:20:37.902Z,101667.00
2023-04-16T19:23:05.704Z,101668.66
2023-04-16T19:25:32.642Z,101679.09
2023-04-16T19:27:59.451Z,101671.88
2023-04-16T19:30:26.426Z,101672.81
2023-04-16T19:32:55.185Z,101673.81
2023-04-16T19:35:22.527Z,101682.66
2023-04-16T19:37:49.176Z,101678.25
2023-04-16T19:40:15.840Z,101668.66
2023-04-16T19:42:45.116Z,101677.31
2023-04-16T19:45:14.529Z,101677.25
2023-04-16T19:47:41.210Z,101687.63
2023-04-16T19:50:11.023Z,101673.72
2023-04-16T19:52:38.893Z,101681.50
2023-04-16T19:55:09.029Z,101678.94
2023-04-16T19:57:35.784Z,101683.19
2023-04-16T20:00:02.563Z,101681.16
2023-04-16T20:02:30.766Z,101685.38
2023-04-16T20:04:57.412Z,101685.09
2023-04-16T20:07:23.920Z,101686.91
2023-04-16T20:09:50.547Z,101692.13
2023-04-16T20:12:18.457Z,101697.22
2023-04-16T20:14:45.022Z,101690.09
2023-04-16T20:17:11.594Z,101689.25
2023-04-16T20:19:38.392Z,101694.63
2023-04-16T20:22:05.081Z,101688.53
2023-04-16T20:24:31.900Z,101689.53
2023-04-16T20:26:58.405Z,101695.31
2023-04-16T20:29:24.958Z,101701.25
2023-04-16T20:31:52.175Z,101692.16
2023-04-16T20:34:18.730Z,101701.13
2023-04-16T20:36:45.727Z,101701.97
2023-04-16T20:39:12.665Z,101701.97
2023-04-16T20:41:43.993Z,101687.88
2023-04-16T20:44:17.986Z,101698.16
2023-04-16T20:46:49.353Z,101691.38
2023-04-16T20:49:17.603Z,101689.72
2023-04-16T20:51:44.399Z,101689.63
2023-04-16T20:54:11.063Z,101693.94
2023-04-16T20:56:37.592Z,101690.66
2023-04-16T20:59:04.275Z,101697.28
2023-04-16T21:01:30.968Z,101692.88
2023-04-16T21:03:58.842Z,101695.38
2023-04-16T21:06:25.601Z,101687.63
2023-04-16T21:08:52.141Z,101698.13
2023-04-16T21:11:19.157Z,101692.16
2023-04-16T21:13:45.778Z,101696.50
2023-04-16T21:16:12.489Z,101699.75
2023-04-16T21:18:39.146Z,101704.78
2023-04-16T21:21:06.038Z,101703.06
2023-04-16T21:23:32.633Z,101700.88
2023-04-16T21:25:59.198Z,101695.78
2023-04-16T21:28:25.796Z,101697.53
2023-04-16T21:30:53.062Z,101698.75
2023-04-16T21:33:19.626Z,101703.59
2023-04-16T21:35:51.723Z,101703.72
2023-04-16T21:38:18.749Z,101706.63
2023-04-16T21:40:46.670Z,101699.09
2023-04-16T21:43:13.195Z,101707.34
2023-04-16T21:45:40.925Z,101703.59
2023-04-16T21:48:07.673Z,101705.88
2023-04-16T21:50:34.299Z,101708.34
2023-04-16T21:53:00.836Z,101710.03
2023-04-16T21:55:27.381Z,101707.69
2023-04-16T21:57:54.126Z,101708.94
2023-04-16T22:00:21.313Z,101710.16
2023-04-16T22:02:47.957Z,101713.78
2023-04-16T22:05:14.684Z,101710.25
2023-04-16T22:07:41.295Z,101715.47
2023-04-16T22:10:12.402Z,101708.41
2023-04-16T22:12:41.030Z,101705.88
2023-04-16T22:15:08.952Z,101711.72
2023-04-16T22:17:35.855Z,101713.59
2023-04-16T22:20:09.671Z,101705.22
2023-04-16T22:22:36.359Z,101709.50
2023-04-16T22:25:03.390Z,101714.47
2023-04-16T22:27:29.967Z,101712.28
2023-04-16T22:29:56.617Z,101713.97
2023-04-16T22:32:23.314Z,101717.75
2023-04-16T22:34:50.032Z,101726.44
2023-04-16T22:37:16.548Z,101722.41
2023-04-16T22:39:43.165Z,101728.31
2023-04-16T22:42:09.723Z,101725.63
2023-04-16T22:44:37.023Z,101735.28
2023-04-16T22:47:03.561Z,101727.97
2023-04-16T22:49:33.095Z,101730.63
2023-04-16T22:52:02.817Z,101726.16
2023-04-16T22:54:33.319Z,101731.09
2023-04-16T22:56:59.861Z,101732.34
2023-04-16T22:59:26.448Z,101738.50
2023-04-16T23:01:53.187Z,101731.63
2023-04-16T23:04:19.947Z,101730.63
2023-04-16T23:06:46.732Z,101727.50
2023-04-16T23:09:13.547Z,101724.13
2023-04-16T23:11:40.544Z,101720.78
2023-04-16T23:14:08.232Z,101722.81
2023-04-16T23:16:34.876Z,101721.19
2023-04-16T23:19:01.435Z,101724.06
2023-04-16T23:21:27.980Z,101732.81
2023-04-16T23:23:54.751Z,101728.72
2023-04-16T23:26:21.307Z,101733.84
2023-04-16T23:28:47.905Z,101726.31
2023-04-16T23:31:14.473Z,101736.66
2023-04-16T23:33:41.085Z,101732.06
2023-04-16T23:36:08.221Z,101731.88
2023-04-16T23:38:34.800Z,101731.41
2023-04-16T23:41:01.426Z,101739.06
2023-04-16T23:43:27.957Z,101733.06
2023-04-16T23:45:54.653Z,101734.88
2023-04-16T23:48:21.377Z,101741.91
2023-04-16T23:50:48.028Z,101742.91
2023-04-16T23:53:14.658Z,101737.88
2023-04-16T23:55:41.168Z,101737.88
2023-04-16T23:58:07.736Z,101743.06
